Time;durP1;ratioP1;P1;durP2;ratioP2;P2;SDS_P1;SDS_P2;PMS_P1;PMS_P2;Temp;Humidity;BMP_temperature;BMP_pressure;BME280_temperature;BME280_humidity;BME280_pressure;Samples;Min_cycle;Max_cycle;Signal;HPM_P1;HPM_P2
2022/08/02 00:01:59;;;;;;;5.18;2.80;;;20.10;99.90;;;19.50;81.77;97529.00;5052689;28;20474;-76
2022/08/02 00:04:25;;;;;;;4.80;2.90;;;20.10;99.90;;;19.47;82.07;97534.19;5050874;28;20437;-76
2022/08/02 00:06:52;;;;;;;3.08;2.47;;;20.10;99.90;;;19.40;82.40;97528.41;5052335;28;20421;-76
2022/08/02 00:09:18;;;;;;;5.00;2.45;;;20.00;99.90;;;19.43;82.40;97525.13;5052532;28;20520;-76
2022/08/02 00:11:44;;;;;;;3.75;2.40;;;20.10;99.90;;;19.47;82.13;97524.22;5052556;28;20409;-75
2022/08/02 00:14:10;;;;;;;5.07;2.47;;;20.10;99.90;;;19.37;81.88;97529.81;5051866;28;20441;-75
2022/08/02 00:16:36;;;;;;;4.32;2.53;;;19.90;99.90;;;19.27;82.53;97527.34;5052254;28;20996;-77
2022/08/02 00:19:02;;;;;;;6.32;2.75;;;19.80;99.90;;;19.34;82.25;97535.78;5052408;28;20405;-76
2022/08/02 00:21:28;;;;;;;5.25;2.90;;;19.90;99.90;;;19.32;82.37;97540.69;5052176;28;20417;-76
2022/08/02 00:23:56;;;;;;;6.97;3.03;;;19.90;99.90;;;19.25;82.55;97540.28;5051181;28;20409;-76
2022/08/02 00:26:22;;;;;;;7.80;2.90;;;19.80;99.90;;;19.25;82.70;97538.41;5052222;28;20471;-76
2022/08/02 00:28:48;;;;;;;5.13;2.72;;;19.90;99.90;;;19.14;83.01;97536.25;5052084;28;20895;-76
2022/08/02 00:31:14;;;;;;;6.28;3.00;;;19.70;99.90;;;19.11;83.32;97531.47;5052111;28;20410;-77
2022/08/02 00:33:40;;;;;;;4.28;3.00;;;19.70;99.90;;;19.07;83.41;97528.63;5051479;28;20416;-76
2022/08/02 00:36:06;;;;;;;5.40;3.08;;;19.70;99.90;;;18.90;84.17;97534.63;5052036;28;20406;-76
2022/08/02 00:38:32;;;;;;;4.80;3.22;;;19.50;99.90;;;18.88;84.80;97534.09;5051928;28;20434;-76
2022/08/02 00:40:59;;;;;;;5.55;3.30;;;19.40;99.90;;;18.89;84.59;97533.03;5052033;28;20409;-76
2022/08/02 00:43:25;;;;;;;4.72;2.70;;;19.40;99.90;;;18.92;84.53;97537.00;5051501;28;20898;-76
2022/08/02 00:45:51;;;;;;;5.38;3.22;;;19.50;99.90;;;18.86;84.55;97536.31;5051707;28;20405;-76
2022/08/02 00:48:17;;;;;;;5.72;3.22;;;19.40;99.90;;;18.69;84.93;97527.28;5050411;28;20417;-76
2022/08/02 00:50:43;;;;;;;5.20;3.17;;;19.20;99.90;;;18.61;85.50;97528.78;5051819;28;20945;-76
2022/08/02 00:53:09;;;;;;;4.75;2.90;;;19.10;99.90;;;18.52;86.01;97531.34;5049922;28;20401;-76
2022/08/02 00:55:38;;;;;;;7.68;3.00;;;19.10;99.90;;;18.52;86.02;97528.66;5051507;28;20409;-76
2022/08/02 00:58:05;;;;;;;4.82;2.85;;;19.10;99.90;;;18.52;85.52;97528.66;5075840;22;20423;-70
2022/08/02 01:00:31;;;;;;;4.22;2.90;;;19.10;99.90;;;18.59;85.58;97530.16;5071489;28;20900;-70
2022/08/02 01:02:57;;;;;;;5.63;2.80;;;19.20;99.90;;;18.62;85.14;97529.59;5071097;28;20400;-72
2022/08/02 01:05:23;;;;;;;4.75;3.00;;;19.20;99.90;;;18.63;84.75;97523.13;5071320;28;20925;-70
2022/08/02 01:07:49;;;;;;;3.78;2.67;;;19.20;99.90;;;18.68;84.81;97521.13;5071380;28;20407;-70
2022/08/02 01:10:15;;;;;;;3.35;2.60;;;19.20;99.90;;;18.63;84.53;97520.44;5071284;28;20410;-70
2022/08/02 01:12:41;;;;;;;4.72;2.83;;;19.20;99.90;;;18.61;84.28;97520.75;5070944;28;20457;-70
2022/08/02 01:15:11;;;;;;;3.60;2.50;;;19.20;99.90;;;18.64;84.22;97516.69;5071131;28;20881;-70
2022/08/02 01:17:47;;;;;;;4.70;2.67;;;19.20;99.90;;;18.65;83.88;97524.41;5071086;28;20400;-70
2022/08/02 01:20:37;;;;;;;3.08;2.33;;;19.30;99.90;;;18.72;83.66;97524.03;5071080;28;20454;-70
2022/08/02 01:23:24;;;;;;;4.32;2.83;;;19.30;99.90;;;18.62;83.75;97530.38;5070676;28;20820;-71
2022/08/02 01:26:06;;;;;;;4.00;2.40;;;19.20;99.90;;;18.59;84.04;97532.84;5071079;28;20431;-70
2022/08/02 01:28:40;;;;;;;4.53;2.67;;;19.10;99.90;;;18.48;84.13;97545.66;5070907;28;20429;-70
2022/08/02 01:31:18;;;;;;;4.30;2.60;;;19.00;99.90;;;18.49;84.45;97541.88;5070962;28;20574;-70
2022/08/02 01:33:55;;;;;;;5.32;2.83;;;19.10;99.90;;;18.49;84.07;97542.66;5070332;28;20888;-70
2022/08/02 01:36:26;;;;;;;4.70;2.58;;;19.10;99.90;;;18.45;84.05;97543.56;5070089;28;20462;-70
2022/08/02 01:38:53;;;;;;;4.30;2.60;;;19.00;99.90;;;18.50;84.01;97538.88;5070752;28;20405;-70
2022/08/02 01:41:23;;;;;;;5.88;3.05;;;19.10;99.90;;;18.53;83.59;97542.84;5070692;28;20437;-71
2022/08/02 01:43:55;;;;;;;4.57;2.53;;;19.10;99.90;;;18.50;83.62;97540.75;5070296;28;20813;-71
2022/08/02 01:46:23;;;;;;;3.63;2.42;;;19.10;99.90;;;18.43;83.70;97546.53;5070718;28;20396;-71
2022/08/02 01:48:52;;;;;;;3.20;2.22;;;19.00;99.90;;;18.44;83.75;97548.13;5070516;28;20410;-71
2022/08/02 01:52:20;;;;;;;3.50;2.50;;;19.00;99.90;;;18.47;83.79;97546.72;5070631;28;20387;-71
2022/08/02 01:54:08;;;;;;;2.33;2.13;;;19.10;99.90;;;18.54;83.08;97555.97;5069945;28;20407;-71
2022/08/02 01:56:34;;;;;;;3.90;2.20;;;19.20;99.90;;;18.60;83.21;97545.16;5070441;28;20392;-71
2022/08/02 01:59:03;;;;;;;4.70;2.67;;;19.20;99.90;;;18.62;82.57;97551.03;5070523;28;20415;-71
2022/08/02 02:01:31;;;;;;;5.00;2.33;;;19.30;99.90;;;18.65;82.30;97548.53;5070528;28;20392;-71
2022/08/02 02:03:58;;;;;;;2.87;2.13;;;19.30;99.90;;;18.66;82.26;97547.44;5070001;28;20573;-71
2022/08/02 02:06:26;;;;;;;4.40;2.50;;;19.30;99.90;;;18.69;82.12;97554.91;5070420;28;20396;-71
2022/08/02 02:08:52;;;;;;;5.10;2.47;;;19.40;99.90;;;18.72;81.77;97554.28;5070385;28;20403;-72
2022/08/02 02:11:20;;;;;;;3.92;2.30;;;19.40;99.90;;;18.67;81.86;97559.75;5070448;28;20453;-72
2022/08/02 02:13:47;;;;;;;4.00;2.80;;;19.30;99.90;;;18.69;81.65;97552.22;5069903;28;20404;-71
2022/08/02 02:16:16;;;;;;;4.68;2.60;;;19.40;99.90;;;18.67;81.52;97559.75;5070375;28;20475;-71
2022/08/02 02:18:43;;;;;;;3.03;2.20;;;19.30;99.90;;;18.61;81.86;97546.75;5070215;28;20392;-71
2022/08/02 02:21:10;;;;;;;3.45;2.13;;;19.20;99.90;;;18.55;81.98;97562.94;5070448;28;20396;-71
2022/08/02 02:23:36;;;;;;;4.30;2.50;;;19.20;99.90;;;18.54;82.09;97557.84;5069831;28;20408;-71
2022/08/02 02:26:04;;;;;;;5.80;2.45;;;19.20;99.90;;;18.49;82.00;97541.88;5070401;28;20434;-71
2022/08/02 02:28:31;;;;;;;6.28;2.50;;;19.10;99.90;;;18.40;82.22;97540.97;5070150;28;20426;-71
2022/08/02 02:31:04;;;;;;;4.85;2.28;;;19.00;99.90;;;18.42;82.34;97541.44;5070232;28;20395;-71
2022/08/02 02:33:36;;;;;;;4.38;2.28;;;19.10;99.90;;;18.48;81.70;97548.31;5069778;28;20446;-71
2022/08/02 02:36:03;;;;;;;3.25;2.20;;;19.10;99.90;;;18.50;81.46;97546.13;5070218;28;20876;-71
2022/08/02 02:38:31;;;;;;;4.43;2.20;;;19.10;99.90;;;18.48;81.49;97532.25;5070113;28;20400;-70
2022/08/02 02:41:01;;;;;;;5.70;2.37;;;19.10;99.90;;;18.45;81.43;97532.81;5070182;28;20392;-71
2022/08/02 02:43:30;;;;;;;3.13;2.25;;;19.10;99.90;;;18.44;81.20;97540.06;5069741;28;20487;-70
2022/08/02 02:45:56;;;;;;;3.63;2.05;;;19.10;99.90;;;18.37;81.25;97542.34;5069967;28;20395;-71
2022/08/02 02:48:23;;;;;;;4.95;2.40;;;19.00;99.90;;;18.27;81.28;97525.69;5073340;28;20502;-70
2022/08/02 02:50:52;;;;;;;3.00;1.90;;;18.90;99.90;;;18.28;81.33;97524.56;5074027;28;20391;-71
2022/08/02 02:53:19;;;;;;;7.13;2.38;;;18.90;99.90;;;18.29;81.34;97520.81;5073523;28;20403;-71
2022/08/02 02:55:47;;;;;;;2.37;2.10;;;18.90;99.90;;;18.30;81.53;97519.72;5073861;28;20407;-71
2022/08/02 02:58:13;;;;;;;3.55;2.15;;;18.90;99.90;;;18.31;81.38;97519.44;5073653;28;20407;-70
2022/08/02 03:03:25;;;;;;;2.88;2.00;;;19.00;99.90;;;18.34;81.27;97515.38;5073283;28;20395;-71
2022/08/02 03:05:52;;;;;;;2.53;2.15;;;19.10;99.90;;;18.35;81.16;97511.56;5073653;28;20408;-70
2022/08/02 03:08:18;;;;;;;4.10;2.13;;;19.10;99.90;;;18.36;81.10;97516.63;5073543;28;20420;-71
2022/08/02 03:10:45;;;;;;;3.33;2.30;;;19.10;99.90;;;18.36;80.66;97511.28;5073595;28;20896;-71
2022/08/02 03:13:12;;;;;;;3.03;2.08;;;19.10;99.90;;;18.34;80.60;97515.38;5073141;28;20395;-71
2022/08/02 03:15:40;;;;;;;3.78;1.98;;;19.00;99.90;;;18.30;80.54;97520.50;5073273;28;20392;-71
2022/08/02 03:18:08;;;;;;;2.35;1.92;;;19.00;99.90;;;18.25;80.68;97522.50;5073517;28;20388;-71
2022/08/02 03:20:35;;;;;;;2.45;2.10;;;18.90;99.90;;;18.21;80.96;97522.28;5073368;28;20773;-71
2022/08/02 03:23:02;;;;;;;2.57;1.90;;;18.90;99.90;;;18.18;80.85;97523.69;5073024;28;20545;-71
2022/08/02 03:25:28;;;;;;;2.95;1.92;;;18.90;99.90;;;18.13;80.63;97523.75;5073218;28;20475;-71
2022/08/02 03:27:54;;;;;;;3.13;2.30;;;18.80;99.90;;;18.11;80.85;97523.28;5073118;28;20494;-71
2022/08/02 03:30:23;;;;;;;2.72;2.20;;;18.80;99.90;;;18.08;81.16;97531.91;5073134;28;20440;-71
2022/08/02 03:32:50;;;;;;;3.00;2.05;;;18.80;99.90;;;18.10;81.01;97534.28;5072618;28;20431;-71
2022/08/02 03:35:17;;;;;;;2.73;1.70;;;18.80;99.90;;;18.09;80.81;97532.72;5073039;28;20484;-70
2022/08/02 03:37:44;;;;;;;3.97;2.15;;;18.80;99.90;;;18.09;80.81;97538.84;5073034;28;20495;-71
2022/08/02 03:40:13;;;;;;;4.72;2.10;;;18.80;99.90;;;18.05;80.57;97537.84;5073053;28;20396;-71
2022/08/02 03:42:40;;;;;;;2.22;1.98;;;18.70;99.90;;;18.03;80.28;97531.22;5072984;28;20387;-71
2022/08/02 03:45:11;;;;;;;3.10;2.05;;;18.70;99.90;;;17.93;80.64;97536.75;5072742;28;20399;-71
2022/08/02 03:47:38;;;;;;;3.83;2.10;;;18.60;99.90;;;17.88;80.92;97544.88;5072829;28;20431;-71
2022/08/02 03:50:06;;;;;;;3.35;2.63;;;18.60;99.90;;;17.90;80.92;97545.34;5072991;28;20399;-71
2022/08/02 03:52:33;;;;;;;2.63;2.13;;;18.60;99.90;;;17.86;80.82;97545.16;5072855;28;20396;-71
2022/08/02 03:54:59;;;;;;;4.20;2.25;;;18.50;99.90;;;17.86;80.93;97545.16;5072483;28;21004;-71
2022/08/02 03:57:26;;;;;;;3.67;2.28;;;18.60;99.90;;;17.87;80.97;97545.94;5072644;28;20899;-72
2022/08/02 03:59:52;;;;;;;3.10;1.90;;;18.60;99.90;;;17.86;80.84;97555.88;5071782;28;20400;-71
2022/08/02 04:02:18;;;;;;;4.03;2.42;;;18.60;99.90;;;17.86;80.77;97552.38;5072595;28;20408;-71
2022/08/02 04:04:44;;;;;;;5.80;2.50;;;18.60;99.90;;;17.80;80.84;97562.41;5072099;28;20396;-71
2022/08/02 04:07:10;;;;;;;2.40;2.20;;;18.50;99.90;;;17.72;81.25;97558.50;5072477;28;20416;-71
2022/08/02 04:09:36;;;;;;;4.30;2.10;;;18.50;99.90;;;17.71;81.31;97564.16;5072425;28;20414;-71
2022/08/02 04:12:02;;;;;;;2.78;2.13;;;18.50;99.90;;;17.70;81.49;97566.03;5072565;28;20418;-71
2022/08/02 04:14:30;;;;;;;2.38;2.17;;;18.50;99.90;;;17.71;81.44;97574.84;5071819;28;20403;-71
2022/08/02 04:17:03;;;;;;;2.77;2.33;;;18.40;99.90;;;17.71;81.45;97572.97;5072308;28;20496;-71
2022/08/02 04:19:38;;;;;;;3.35;2.50;;;18.50;99.90;;;17.71;81.21;97577.53;5072392;28;20467;-71
2022/08/02 04:22:08;;;;;;;2.42;2.13;;;18.50;99.90;;;17.71;81.42;97577.53;5072367;28;20396;-71
2022/08/02 04:24:40;;;;;;;2.58;2.38;;;18.40;99.90;;;17.72;81.26;97585.28;5071741;28;20403;-71
2022/08/02 04:27:08;;;;;;;3.35;2.28;;;18.40;99.90;;;17.76;81.03;97580.13;5072248;28;20916;-72
2022/08/02 04:29:36;;;;;;;5.22;2.40;;;18.40;99.90;;;17.75;81.15;97581.22;5072045;28;20460;-71
2022/08/02 04:32:05;;;;;;;2.65;2.00;;;18.40;99.90;;;17.76;81.35;97586.28;5072133;28;20400;-71
2022/08/02 04:34:32;;;;;;;4.50;2.08;;;18.50;99.90;;;17.77;81.28;97590.53;5071515;28;20396;-72
2022/08/02 04:36:59;;;;;;;3.47;2.40;;;18.50;99.90;;;17.84;81.36;97594.72;5071920;28;20427;-72
2022/08/02 04:39:25;;;;;;;3.58;2.10;;;18.50;99.90;;;17.87;81.21;97586.91;5071920;28;20410;-71
2022/08/02 04:41:51;;;;;;;2.80;2.00;;;18.60;99.90;;;17.90;81.03;97598.91;5071970;28;20471;-72
2022/08/02 04:44:17;;;;;;;2.50;2.10;;;18.60;99.90;;;17.93;80.96;97596.47;5071378;28;20495;-72
2022/08/02 04:46:45;;;;;;;3.90;1.98;;;18.70;99.90;;;17.94;80.80;97595.38;5071667;28;20456;-72
2022/08/02 04:49:11;;;;;;;2.95;2.13;;;18.70;99.90;;;17.99;80.84;97589.91;5071780;28;20403;-72
2022/08/02 04:51:38;;;;;;;2.33;1.95;;;18.70;99.90;;;18.02;80.63;97589.34;5071738;28;20403;-72
2022/08/02 04:54:05;;;;;;;3.47;2.00;;;18.80;99.90;;;18.09;80.74;97584.41;5071320;28;20445;-71
2022/08/02 04:56:31;;;;;;;2.03;1.65;;;18.80;99.90;;;18.16;80.68;97582.13;5071643;28;20738;-71
2022/08/02 04:58:57;;;;;;;2.53;1.90;;;18.90;99.90;;;18.26;80.60;97589.22;5071367;28;20408;-71
2022/08/02 05:01:23;;;;;;;2.40;1.90;;;19.00;99.90;;;18.33;80.44;97584.25;5071556;28;20412;-71
2022/08/02 05:03:50;;;;;;;2.72;1.90;;;19.00;99.90;;;18.43;80.18;97588.63;5071020;28;20408;-71
2022/08/02 05:06:18;;;;;;;2.55;1.70;;;19.10;99.90;;;18.50;79.84;97587.13;5071417;28;20404;-72
2022/08/02 05:08:44;;;;;;;2.40;1.88;;;19.20;99.90;;;18.55;79.80;97587.06;5071246;28;20469;-71
2022/08/02 05:11:10;;;;;;;2.30;1.90;;;19.30;99.90;;;18.62;79.73;97597.41;5071142;28;20400;-71
2022/08/02 05:13:36;;;;;;;2.60;1.80;;;19.30;99.90;;;18.68;79.68;97590.06;5070663;28;20404;-71
2022/08/02 05:16:03;;;;;;;2.80;2.05;;;19.40;99.90;;;18.74;79.46;97592.34;5071310;28;20404;-71
2022/08/02 05:18:29;;;;;;;1.92;1.70;;;19.40;99.90;;;18.80;79.44;97590.34;5071202;28;20889;-72
2022/08/02 05:20:58;;;;;;;3.17;2.20;;;19.50;99.90;;;18.85;79.12;97588.38;5071223;28;20399;-72
2022/08/02 05:23:24;;;;;;;3.08;2.20;;;19.60;99.90;;;18.92;78.62;97590.66;5070796;28;20515;-72
2022/08/02 05:25:50;;;;;;;4.60;2.23;;;19.60;99.90;;;18.99;78.22;97587.56;5071215;28;20414;-71
2022/08/02 05:28:16;;;;;;;2.78;2.20;;;19.70;99.90;;;19.09;77.90;97587.34;5070920;28;20486;-72
2022/08/02 05:30:42;;;;;;;2.38;2.17;;;19.70;99.90;;;19.17;77.47;97582.03;5071050;28;20438;-72
2022/08/02 05:33:07;;;;;;;2.40;1.85;;;19.80;99.90;;;19.26;77.51;97584.81;5070680;28;20753;-72
2022/08/02 05:35:34;;;;;;;2.90;2.08;;;19.90;99.90;;;19.33;77.26;97586.00;5070760;28;20410;-72
2022/08/02 05:38:01;;;;;;;3.30;2.20;;;20.00;99.90;;;19.38;77.27;97579.72;5070824;28;20971;-72
2022/08/02 05:40:27;;;;;;;4.05;2.10;;;20.00;99.90;;;19.43;77.22;97581.50;5070767;28;20403;-72
2022/08/02 05:42:53;;;;;;;3.40;2.53;;;20.10;99.90;;;19.44;76.47;97575.84;5070253;28;20400;-72
2022/08/02 05:45:19;;;;;;;3.33;2.20;;;20.00;99.90;;;19.49;76.45;97573.06;5070632;28;20773;-71
2022/08/02 05:47:45;;;;;;;2.97;1.97;;;20.10;99.90;;;19.56;76.14;97575.31;5070538;28;20975;-71
2022/08/02 05:50:11;;;;;;;4.90;2.08;;;20.20;99.90;;;19.61;76.11;97578.69;5069416;28;20407;-71
2022/08/02 05:52:55;;;;;;;3.50;2.15;;;20.30;99.90;;;19.69;76.02;97582.53;5070440;28;20961;-71
2022/08/02 05:55:27;;;;;;;2.90;2.30;;;20.30;99.90;;;19.74;75.96;97587.00;5070439;28;20414;-71
2022/08/02 05:58:02;;;;;;;2.40;2.17;;;20.40;99.90;;;19.75;75.92;97580.53;5070292;28;20542;-71
2022/08/02 06:00:31;;;;;;;3.07;2.23;;;20.40;99.90;;;19.74;75.89;97587.00;5070531;28;20415;-71
2022/08/02 06:03:21;;;;;;;4.10;2.60;;;20.40;99.90;;;19.70;75.40;97587.59;5070213;28;20400;-71
2022/08/02 06:05:55;;;;;;;3.95;2.50;;;20.40;99.90;;;19.70;75.43;97586.78;5070523;28;20881;-71
2022/08/02 06:08:30;;;;;;;3.92;2.90;;;20.40;99.90;;;19.73;75.26;97582.72;5070359;28;20415;-71
2022/08/02 06:11:01;;;;;;;3.80;2.63;;;20.40;99.90;;;19.75;74.26;97589.38;5070524;28;20437;-71
2022/08/02 06:13:27;;;;;;;3.65;2.75;;;20.40;99.90;;;19.77;74.11;97595.25;5070063;28;20453;-71
2022/08/02 06:15:58;;;;;;;3.60;2.60;;;20.40;99.90;;;19.79;73.93;97589.53;5070315;28;20431;-71
2022/08/02 06:18:26;;;;;;;2.58;2.22;;;20.40;99.90;;;19.81;74.10;97592.72;5070240;28;20889;-71
2022/08/02 06:20:54;;;;;;;3.78;2.50;;;20.50;99.90;;;19.86;73.84;97600.66;5070659;28;20479;-71
2022/08/02 06:23:22;;;;;;;3.60;2.83;;;20.50;99.90;;;19.87;72.60;97604.94;5076187;28;20426;-71
2022/08/02 06:25:51;;;;;;;4.80;2.60;;;20.50;99.90;;;19.91;72.71;97589.81;5076984;28;20398;-70
2022/08/02 06:28:19;;;;;;;3.63;2.35;;;20.60;99.90;;;19.97;72.46;97599.31;5076783;28;20407;-71
2022/08/02 06:30:46;;;;;;;3.50;2.40;;;20.60;99.90;;;19.99;72.51;97594.44;5076882;28;20900;-71
2022/08/02 06:33:12;;;;;;;3.70;2.60;;;20.60;99.90;;;20.05;72.34;97593.22;5076584;28;20399;-70
2022/08/02 06:35:45;;;;;;;2.35;2.15;;;20.70;99.90;;;20.08;72.36;97597.97;5076859;28;20400;-71
2022/08/02 06:38:18;;;;;;;3.72;2.60;;;20.70;99.90;;;20.10;72.12;97590.38;5076806;28;20387;-72
2022/08/02 06:40:54;;;;;;;5.47;3.25;;;20.70;99.90;;;20.13;71.98;97591.69;5076695;28;20392;-72
2022/08/02 06:43:29;;;;;;;4.32;3.10;;;20.80;99.90;;;20.15;70.94;97581.41;5076503;28;20573;-71
2022/08/02 06:45:55;;;;;;;6.00;3.00;;;20.80;99.90;;;20.15;70.79;97578.75;5076532;28;20403;-71
2022/08/02 06:48:21;;;;;;;6.03;3.20;;;20.80;99.90;;;20.18;70.85;97581.59;5076592;28;20411;-72
2022/08/02 06:50:47;;;;;;;6.30;3.10;;;20.80;99.90;;;20.21;70.95;97580.97;5076897;28;20418;-72
2022/08/02 06:53:13;;;;;;;6.32;3.00;;;20.80;99.90;;;20.26;70.94;97585.41;5076286;28;20407;-71
2022/08/02 06:55:39;;;;;;;5.93;3.13;;;20.90;99.90;;;20.28;70.66;97591.28;5076416;28;20392;-71
2022/08/02 06:58:05;;;;;;;5.20;4.00;;;20.90;99.90;;;20.30;70.28;97589.88;5082158;22;20764;-74
2022/08/02 07:00:33;;;;;;;5.50;3.13;;;20.90;99.90;;;20.34;70.29;97587.41;5056540;28;20492;-75
2022/08/02 07:02:59;;;;;;;4.45;3.78;;;21.00;99.90;;;20.39;69.83;97606.06;5056023;28;20925;-76
2022/08/02 07:05:25;;;;;;;5.65;3.38;;;21.00;99.90;;;20.41;69.53;97593.91;5056357;28;20405;-77
2022/08/02 07:07:51;;;;;;;4.68;3.33;;;21.00;99.90;;;20.44;69.33;97592.50;5056402;28;20417;-76
2022/08/02 07:10:17;;;;;;;6.20;3.00;;;21.10;99.90;;;20.48;69.25;97590.78;5056501;28;20397;-77
2022/08/02 07:12:43;;;;;;;6.13;3.10;;;21.10;99.90;;;20.51;69.20;97600.13;5056160;28;20409;-76
2022/08/02 07:15:11;;;;;;;4.30;2.60;;;21.10;99.90;;;20.54;69.29;97596.81;5056271;28;20920;-77
2022/08/02 07:17:38;;;;;;;5.35;3.42;;;21.10;99.90;;;20.57;69.10;97599.69;5056419;28;20409;-76
2022/08/02 07:20:08;;;;;;;8.35;3.25;;;21.20;99.90;;;20.63;68.98;97597.66;5055077;28;20416;-76
2022/08/02 07:22:35;;;;;;;5.82;3.15;;;21.20;99.90;;;20.67;68.84;97612.06;5056426;28;20404;-76
2022/08/02 07:25:02;;;;;;;5.85;3.20;;;21.30;99.90;;;20.71;68.96;97605.75;5055834;28;20488;-76
2022/08/02 07:27:28;;;;;;;3.70;2.80;;;21.30;99.90;;;20.80;68.89;97609.28;5056205;28;20933;-76
2022/08/02 07:29:55;;;;;;;4.90;2.70;;;21.40;99.90;;;20.86;68.91;97599.94;5056328;28;20413;-76
2022/08/02 07:32:24;;;;;;;3.35;2.58;;;21.50;99.90;;;20.97;68.52;97596.97;5056034;28;20776;-76
2022/08/02 07:34:55;;;;;;;3.42;2.55;;;21.50;99.90;;;21.06;68.49;97606.63;5052725;28;20771;-76
2022/08/02 07:37:23;;;;;;;4.57;3.37;;;21.60;99.90;;;21.14;67.61;97605.06;5053021;28;20863;-77
2022/08/02 07:39:49;;;;;;;4.78;2.70;;;21.70;99.30;;;21.22;67.22;97601.63;5068392;28;20425;-76
2022/08/02 07:42:15;;;;;;;6.75;3.10;;;21.80;98.80;;;21.27;66.86;97600.72;5053087;28;20767;-76
2022/08/02 07:44:41;;;;;;;6.00;3.42;;;21.80;98.20;;;21.30;65.56;97600.06;5052352;28;20397;-76
2022/08/02 07:47:07;;;;;;;3.73;2.97;;;21.90;96.50;;;21.39;64.96;97603.56;5052829;28;20805;-76
2022/08/02 07:49:33;;;;;;;7.05;2.72;;;22.00;96.00;;;21.45;65.22;97607.69;5052940;28;20939;-76
2022/08/02 07:52:01;;;;;;;6.13;3.10;;;22.00;95.90;;;21.52;65.39;97599.94;5051527;28;20406;-77
2022/08/02 07:54:27;;;;;;;3.78;2.72;;;22.10;96.10;;;21.54;64.79;97603.91;5052284;28;20405;-75
2022/08/02 07:56:53;;;;;;;3.58;2.75;;;22.10;95.40;;;21.58;64.79;97612.13;5052723;28;20490;-75
2022/08/02 07:59:19;;;;;;;6.78;3.35;;;22.20;95.20;;;21.60;64.54;97604.53;5052540;28;20413;-76
2022/08/02 08:01:45;;;;;;;7.15;3.55;;;22.20;94.60;;;21.60;64.23;97605.31;5052683;28;20412;-76
2022/08/02 08:04:12;;;;;;;5.40;2.42;;;22.20;94.20;;;21.69;64.43;97612.63;5052097;28;20766;-76
2022/08/02 08:06:38;;;;;;;7.20;2.83;;;22.20;94.50;;;21.75;63.87;97614.81;5052674;28;20406;-76
2022/08/02 08:09:05;;;;;;;4.33;3.60;;;22.30;94.20;;;21.79;62.72;97615.78;5050993;28;20425;-76
2022/08/02 08:11:31;;;;;;;4.70;3.05;;;22.40;92.50;;;21.83;62.78;97615.94;5052401;28;20408;-76
2022/08/02 08:13:57;;;;;;;4.60;3.40;;;22.40;92.40;;;21.85;62.70;97614.53;5051925;28;20405;-76
2022/08/02 08:16:25;;;;;;;4.32;3.08;;;22.40;92.30;;;21.88;62.79;97605.78;5052444;28;20425;-76
2022/08/02 08:18:51;;;;;;;8.10;3.92;;;22.50;92.30;;;21.92;62.29;97609.44;5051061;28;20938;-76
2022/08/02 08:21:17;;;;;;;4.75;2.92;;;22.50;91.50;;;22.04;61.95;97610.72;5052297;28;20417;-77
2022/08/02 08:23:43;;;;;;;7.60;3.20;;;22.60;91.50;;;22.13;62.33;97612.28;5050446;28;20401;-76
2022/08/02 08:26:10;;;;;;;6.73;4.00;;;22.70;91.70;;;22.20;61.45;97609.88;5052346;28;20890;-76
2022/08/02 08:28:36;;;;;;;8.38;3.50;;;22.80;91.20;;;22.33;61.17;97614.28;5052068;28;20429;-75
2022/08/02 08:31:02;;;;;;;4.40;3.88;;;22.90;90.50;;;22.44;60.38;97609.34;5052113;28;20402;-76
2022/08/02 08:33:28;;;;;;;5.32;3.83;;;23.00;90.00;;;22.57;59.23;97611.06;5051524;28;20412;-76
2022/08/02 08:35:55;;;;;;;4.83;3.37;;;23.10;87.60;;;22.69;59.45;97610.38;5050745;28;20597;-75
2022/08/02 08:38:21;;;;;;;6.68;3.22;;;23.20;87.40;;;22.80;59.34;97606.22;5050471;28;20405;-75
2022/08/02 08:40:48;;;;;;;4.40;3.30;;;23.40;87.40;;;22.92;59.23;97606.34;5051764;28;20408;-75
2022/08/02 08:43:16;;;;;;;4.80;2.93;;;23.40;87.20;;;23.05;59.20;97607.22;5050143;28;20772;-75
2022/08/02 08:45:43;;;;;;;4.07;3.05;;;23.60;86.60;;;23.16;58.85;97613.81;5049758;28;20409;-75
2022/08/02 08:48:15;;;;;;;4.63;3.30;;;23.70;85.70;;;23.28;57.80;97607.72;5051546;28;20413;-75
2022/08/02 08:50:54;;;;;;;4.55;2.90;;;23.80;84.30;;;23.40;57.68;97597.78;5051834;28;20398;-76
2022/08/02 08:53:22;;;;;;;4.87;2.93;;;23.90;83.80;;;23.50;57.69;97593.94;5051204;28;20453;-76
2022/08/02 08:55:51;;;;;;;3.90;3.10;;;24.00;83.60;;;23.63;57.46;97608.28;5051458;28;20409;-76
2022/08/02 08:58:19;;;;;;;4.47;3.40;;;24.10;83.10;;;23.70;56.57;97603.13;5051214;28;20974;-74
2022/08/02 09:00:46;;;;;;;5.40;3.22;;;24.20;81.30;;;23.77;55.88;97608.81;5050279;28;20409;-74
2022/08/02 09:03:12;;;;;;;5.30;3.55;;;24.30;80.40;;;23.84;55.83;97601.75;5051059;28;20401;-75
2022/08/02 09:05:40;;;;;;;3.72;3.33;;;24.30;79.70;;;23.95;55.17;97606.75;5051300;28;20404;-76
2022/08/02 09:08:07;;;;;;;3.65;3.10;;;24.50;79.10;;;24.05;54.87;97596.31;5051147;28;20473;-75
2022/08/02 09:10:38;;;;;;;4.10;3.00;;;24.50;78.50;;;24.12;54.57;97595.78;5051317;28;20488;-76
2022/08/02 09:13:15;;;;;;;4.25;3.47;;;24.60;77.50;;;24.16;53.81;97594.75;5050896;28;20584;-76
2022/08/02 09:15:45;;;;;;;3.10;2.65;;;24.70;76.30;;;24.23;53.73;97586.13;5049760;28;20890;-76
2022/08/02 09:18:11;;;;;;;5.80;3.60;;;24.70;75.90;;;24.22;51.19;97592.66;5051121;28;20409;-76
2022/08/02 09:20:53;;;;;;;4.97;3.60;;;24.70;71.90;;;24.17;51.08;97592.84;5051175;28;20401;-74
2022/08/02 09:23:21;;;;;;;5.43;3.22;;;24.60;71.40;;;24.26;52.11;97590.88;5049304;28;20413;-76
2022/08/02 09:25:56;;;;;;;4.88;2.97;;;24.70;73.30;;;24.42;52.77;97591.81;5050876;28;20414;-75
2022/08/02 09:28:26;;;;;;;4.50;2.90;;;24.90;74.10;;;24.48;53.03;97590.47;5050853;28;20413;-76
2022/08/02 09:30:57;;;;;;;4.25;3.25;;;24.90;74.10;;;24.44;52.74;97594.16;5050912;28;20394;-75
2022/08/02 09:33:27;;;;;;;3.95;3.22;;;24.90;73.70;;;24.38;52.90;97590.09;5050543;28;20898;-75
2022/08/02 09:36:00;;;;;;;4.70;3.22;;;24.90;73.70;;;24.27;53.46;97587.84;5050804;28;20409;-73
2022/08/02 09:38:27;;;;;;;5.93;3.50;;;24.80;74.00;;;24.20;53.12;97581.41;5050797;28;20413;-75
2022/08/02 09:40:53;;;;;;;4.57;2.90;;;24.70;74.00;;;24.14;53.71;97582.69;5050756;28;20470;-74
2022/08/02 09:43:19;;;;;;;4.32;2.90;;;24.70;74.50;;;24.09;54.01;97577.50;5050273;28;20918;-76
2022/08/02 09:45:45;;;;;;;5.47;3.33;;;24.60;75.10;;;24.02;53.01;97575.34;5050633;28;20401;-77
2022/08/02 09:48:13;;;;;;;6.43;3.20;;;24.60;73.80;;;24.04;52.76;97581.22;5065981;28;20422;-76
2022/08/02 09:50:41;;;;;;;7.57;3.85;;;24.50;73.40;;;23.88;52.17;97581.03;5050686;28;20420;-75
2022/08/02 09:53:12;;;;;;;5.50;3.78;;;24.40;72.20;;;23.80;52.03;97581.91;5050169;28;20406;-77
2022/08/02 09:55:39;;;;;;;4.85;4.03;;;24.30;72.10;;;23.68;51.73;97584.53;5048938;28;20409;-76
2022/08/02 09:58:17;;;;;;;4.40;3.50;;;24.20;71.50;;;23.63;52.51;97581.25;5049547;28;20818;-76
2022/08/02 10:00:53;;;;;;;4.03;3.25;;;24.10;72.40;;;23.62;52.78;97585.88;5050553;28;20397;-76
2022/08/02 10:03:21;;;;;;;4.35;3.67;;;24.10;72.90;;;23.59;52.64;97591.94;5049976;28;20463;-75
2022/08/02 10:05:49;;;;;;;4.05;3.15;;;24.10;72.70;;;23.60;52.79;97580.03;5050333;28;20495;-76
2022/08/02 10:08:16;;;;;;;5.72;3.60;;;24.10;72.90;;;23.62;53.16;97587.78;5050145;28;20443;-76
2022/08/02 10:10:43;;;;;;;4.68;2.95;;;24.10;73.20;;;23.64;53.69;97580.13;5050506;28;20500;-76
2022/08/02 10:13:10;;;;;;;3.88;3.15;;;24.20;74.00;;;23.67;53.67;97582.19;5065310;28;20401;-76
2022/08/02 10:15:37;;;;;;;7.32;3.78;;;24.20;74.10;;;23.82;53.66;97578.88;5048907;28;20405;-77
2022/08/02 10:18:04;;;;;;;5.47;3.50;;;24.30;74.50;;;24.14;53.03;97572.66;5050167;28;20436;-76
2022/08/02 10:20:39;;;;;;;2.97;2.70;;;24.60;73.50;;;24.55;52.60;97570.97;5050262;28;20910;-76
2022/08/02 10:23:07;;;;;;;8.40;4.20;;;24.90;73.00;;;24.79;49.54;97568.28;5049804;28;20508;-76
2022/08/02 10:25:36;;;;;;;4.32;3.17;;;25.20;68.40;;;25.18;49.92;97580.34;5050144;28;20405;-76
2022/08/02 10:28:05;;;;;;;5.90;3.10;;;25.60;69.30;;;25.49;49.31;97563.44;5050146;28;20906;-77